• Join FlightAware (Why Join?)
  • Login
  • US Flag 
08:01PM EDT


 

Airport Tracker/Info


-or-


 

Live Flight TrackerFlight Track Log ✈ SKW6492 ✈ 25-01-2014 ✈ KDEN - KCOD

Flight Track Log - Related Links

Times and Time Zones

All times are in EST time to prevent confusion due to time zone crossing. See the SKW6492 flight status page for this flight to view local times or setup timezone preferences in your user account.

Time Position Orientation Groundspeed Altitude Reporting Facility
EST Latitude Longitude Course Direction KTS MPH feet Rate Location/Type
10:51PM 39.9167 -104.6833 346° North 179 206 6,900  Level Denver TRACON
10:52PM 39.9833 -104.6500 21° North 261 300 8,800 2,520 Climbing Denver TRACON
10:53PM 40.0333 -104.6000 37° Northeast 252 290 11,800 2,460 Climbing Denver TRACON
10:54PM 40.2421 -104.7943 347° North  Level FlightAware Approximate
10:55PM 40.3406 -104.8247 346° North  Level FlightAware Approximate
10:55PM 40.1347 -104.5986 North 259 298 14,800  Level Denver Center
10:56PM 40.4387 -104.8573 346° North  Level FlightAware Approximate
10:56PM 40.2122 -104.6272 344° North 289 333 16,300  Level Denver Center
10:57PM 40.3164 -104.6683 343° North 319 367 18,600 1,920 Climbing Denver Center
10:58PM 40.4017 -104.7014 344° North 317 365 20,300 1,320 Climbing Denver Center
10:59PM 40.4864 -104.7333 344° North 321 369 21,300 720 Climbing Denver Center
11:00PM 40.6014 -104.7769 344° North 356 410 22,100 540 Climbing Denver Center
11:01PM 40.7217 -104.8219 344° North 372 428 22,700 540 Climbing Denver Center
11:02PM 40.8272 -104.8661 342° North 393 452 23,200 540 Climbing Denver Center
11:03PM 40.9317 -104.9186 339° North 402 463 23,800 720 Climbing Denver Center
11:04PM 41.0350 -104.9708 339° North 406 467 24,700 900 Climbing Denver Center
11:05PM 41.1419 -105.0550 329° Northwest 423 487 25,700 960 Climbing Denver Center
11:06PM 41.2236 -105.1400 322° Northwest 395 455 26,700 960 Climbing Denver Center
11:07PM 41.3036 -105.2283 320° Northwest 392 451 27,700 960 Climbing Denver Center
11:08PM 41.3950 -105.3306 320° Northwest 386 444 28,700 840 Climbing Denver Center
11:09PM 41.4725 -105.4156 321° Northwest 380 437 29,400 540 Climbing Denver Center
11:10PM 41.5506 -105.5033 320° Northwest 382 440 29,900 540 Climbing Denver Center
11:11PM 41.6428 -105.6061 320° Northwest 385 443 30,500 540 Climbing Denver Center
11:12PM 41.7219 -105.6936 320° Northwest 385 443 31,000 420 Climbing Denver Center
11:13PM 41.8033 -105.7844 320° Northwest 391 450 31,400 420 Climbing Denver Center
11:14PM 41.8850 -105.8767 320° Northwest 397 457 31,900 240 Climbing Denver Center
11:15PM 41.9806 -105.9842 320° Northwest 402 463 32,000  Climbing Denver Center
11:16PM 42.0631 -106.0769 320° Northwest 403 464 32,000  Level Denver Center
11:17PM 42.1433 -106.1694 320° Northwest 398 458 32,000  Level Denver Center
11:18PM 42.2403 -106.2792 320° Northwest 405 466 32,000  Level Denver Center
11:19PM 42.3225 -106.3753 319° Northwest 408 470 32,000  Level Denver Center
11:20PM 42.4056 -106.4703 320° Northwest 407 468 32,000  Level Denver Center
11:21PM 42.5033 -106.5836 320° Northwest 412 474 32,000  Level Denver Center
11:22PM 42.5867 -106.6808 319° Northwest 412 474 32,000  Level Denver Center
11:23PM 42.6708 -106.7767 320° Northwest 412 474 32,000  Level Denver Center
11:25PM 42.7681 -106.8897 320° Northwest 412 474 32,000  Level Denver Center
11:26PM 42.8519 -106.9869 320° Northwest 413 475 32,000  Level Denver Center
11:26PM 42.8906 -107.0342 318° Northwest 410 472 32,000  Level Salt Lake Center
11:27PM 42.9889 -107.1519 319° Northwest 410 472 32,000  Level Salt Lake Center
11:28PM 43.0736 -107.2525 319° Northwest 406 467 32,000  Level Salt Lake Center
11:29PM 43.1586 -107.3519 320° Northwest 404 465 32,000  Level Salt Lake Center
11:30PM 43.2433 -107.4536 319° Northwest 406 467 32,000  Level Salt Lake Center
11:31PM 43.3286 -107.5569 319° Northwest 408 470 32,000  Level Salt Lake Center
11:32PM 43.4144 -107.6597 319° Northwest 410 472 32,000  Level Salt Lake Center
11:33PM 43.4992 -107.7606 319° Northwest 405 466 32,000 -660 Level Salt Lake Center
11:34PM 43.5842 -107.8642 319° Northwest 408 470 30,700 -1,680 Descending Salt Lake Center
11:35PM 43.6650 -107.9619 319° Northwest 389 448 28,700 -1,980 Descending Salt Lake Center
11:36PM 43.7381 -108.0536 318° Northwest 361 415 26,700 -2,040 Descending Salt Lake Center
11:37PM 43.8072 -108.1381 319° Northwest 337 388 24,700 -2,040 Descending Salt Lake Center
11:38PM 43.8733 -108.2200 318° Northwest 322 371 22,700 -2,040 Descending Salt Lake Center
11:39PM 43.9356 -108.2967 318° Northwest 305 351 20,600 -2,040 Descending Salt Lake Center
11:40PM 43.9944 -108.3708 318° Northwest 295 339 18,700 -1,920 Descending Salt Lake Center
11:41PM 44.0528 -108.4425 319° Northwest 288 331 16,700 -2,040 Descending Salt Lake Center
11:42PM 44.1100 -108.5136 318° Northwest 282 325 14,700 -1,740 Descending Salt Lake Center
11:43PM 44.1683 -108.5858 318° Northwest 280 322 13,300 -1,500 Descending Salt Lake Center
11:44PM 44.2261 -108.6558 319° Northwest 279 321 11,700 -1,500 Descending Salt Lake Center
11:45PM 44.2836 -108.7272 318° Northwest 277 319 10,300 -1,380 Descending Salt Lake Center
11:46PM 44.3400 -108.7975 318° Northwest 276 318 9,000 -660 Descending Salt Lake Center
11:47PM 44.3853 -108.8550 318° Northwest 252 290 9,000 -120 Level Salt Lake Center
11:48PM 44.4261 -108.8758 340° North 196 226 8,800 -420 Descending Salt Lake Center
11:49PM 44.4706 -108.9086 332° Northwest 180 207 8,200 -840 Descending Salt Lake Center
11:50PM 44.5161 -108.9183 351° North 173 199 7,200 -1,200 Descending Salt Lake Center
11:51PM 44.5461 -108.9650 312° West 153 176 5,900 -900 Descending Salt Lake Center
11:52PM 44.5322 -109.0053 244° Southwest 153 176 5,500 -420 Descending Salt Lake Center